createdAt,value
2019-04-01T00:01:17.155Z,10.97
2019-04-01T00:03:45.758Z,6.53
2019-04-01T00:06:15.411Z,10.93
2019-04-01T00:08:43.865Z,8.90
2019-04-01T00:11:17.199Z,14.53
2019-04-01T00:13:46.887Z,13.33
2019-04-01T00:16:15.359Z,14.47
2019-04-01T00:18:44.857Z,9.63
2019-04-01T00:21:13.585Z,9.37
2019-04-01T00:23:48.034Z,12.85
2019-04-01T00:26:16.488Z,9.70
2019-04-01T00:28:44.976Z,8.37
2019-04-01T00:31:13.486Z,12.90
2019-04-01T00:33:41.947Z,9.37
2019-04-01T00:36:10.431Z,7.50
2019-04-01T00:38:39.833Z,6.93
2019-04-01T00:41:13.993Z,11.30
2019-04-01T00:43:52.948Z,9.50
2019-04-01T00:46:22.495Z,14.27
2019-04-01T00:48:51.161Z,15.17
2019-04-01T00:51:19.659Z,12.93
2019-04-01T00:53:48.343Z,11.50
2019-04-01T00:56:16.835Z,8.03
2019-04-01T00:58:45.306Z,5.50
2019-04-01T01:01:13.873Z,6.87
2019-04-01T01:03:43.932Z,6.37
2019-04-01T01:06:12.477Z,9.03
2019-04-01T01:08:40.931Z,8.88
2019-04-01T01:11:10.671Z,11.87
2019-04-01T01:13:39.153Z,12.23
2019-04-01T01:16:07.708Z,6.60
2019-04-01T01:18:36.510Z,6.97
2019-04-01T01:21:08.430Z,11.83
2019-04-01T01:23:36.963Z,9.70
2019-04-01T01:26:06.706Z,5.93
2019-04-01T01:28:35.338Z,8.07
2019-04-01T01:31:03.808Z,10.27
2019-04-01T01:33:32.263Z,5.17
2019-04-01T01:36:00.752Z,8.13
2019-04-01T01:38:30.908Z,10.00
2019-04-01T01:40:59.442Z,9.60
2019-04-01T01:43:28.012Z,10.87
2019-04-01T01:45:56.474Z,16.30
2019-04-01T01:48:26.248Z,11.93
2019-04-01T01:50:54.748Z,10.47
2019-04-01T01:53:24.256Z,8.20
2019-04-01T01:55:52.710Z,5.43
2019-04-01T01:58:22.725Z,9.87
2019-04-01T02:00:51.254Z,5.43
2019-04-01T02:03:20.880Z,11.97
2019-04-01T02:05:49.543Z,9.17
2019-04-01T02:08:20.136Z,10.17
2019-04-01T02:10:50.132Z,12.57
2019-04-01T02:13:20.326Z,11.30
2019-04-01T02:15:49.923Z,12.93
2019-04-01T02:18:18.433Z,10.07
2019-04-01T02:20:48.714Z,10.48
2019-04-01T02:23:17.170Z,8.53
2019-04-01T02:25:46.832Z,8.93
2019-04-01T02:28:16.930Z,13.23
2019-04-01T02:30:49.197Z,4.87
2019-04-01T02:33:17.659Z,6.42
2019-04-01T02:35:47.692Z,11.00
2019-04-01T02:38:19.031Z,14.73
2019-04-01T02:40:47.813Z,14.77
2019-04-01T02:43:19.332Z,12.13
2019-04-01T02:45:49.235Z,10.50
2019-04-01T02:48:17.876Z,9.90
2019-04-01T02:50:46.584Z,9.33
2019-04-01T02:53:15.126Z,12.20
2019-04-01T02:55:43.717Z,9.10
2019-04-01T02:58:16.241Z,9.93
2019-04-01T03:00:53.386Z,7.70
2019-04-01T03:03:21.848Z,8.17
2019-04-01T03:05:51.851Z,11.57
2019-04-01T03:08:20.342Z,8.77
2019-04-01T03:10:50.366Z,6.67
2019-04-01T03:13:22.023Z,13.20
2019-04-01T03:15:50.663Z,10.50
2019-04-01T03:18:19.133Z,11.63
2019-04-01T03:20:47.654Z,9.93
2019-04-01T03:23:18.294Z,8.75
2019-04-01T03:25:46.886Z,9.20
2019-04-01T03:28:18.225Z,12.87
2019-04-01T03:30:46.781Z,8.83
2019-04-01T03:33:15.290Z,6.37
2019-04-01T03:35:43.756Z,8.10
2019-04-01T03:38:12.250Z,8.83
2019-04-01T03:40:40.785Z,10.37
2019-04-01T03:43:09.250Z,13.88
2019-04-01T03:45:39.173Z,6.57
2019-04-01T03:48:11.756Z,10.80
2019-04-01T03:50:40.252Z,6.20
2019-04-01T03:53:11.566Z,8.73
2019-04-01T03:55:40.270Z,13.65
2019-04-01T03:58:08.771Z,7.57
2019-04-01T04:00:37.289Z,10.90
2019-04-01T04:03:10.395Z,8.57
2019-04-01T04:05:39.858Z,5.43
2019-04-01T04:08:08.363Z,15.08
2019-04-01T04:10:36.808Z,9.60
2019-04-01T04:13:05.276Z,13.27
2019-04-01T04:15:36.552Z,9.23
2019-04-01T04:18:05.085Z,11.10
2019-04-01T04:20:33.541Z,6.73
2019-04-01T04:23:03.121Z,6.20
2019-04-01T04:25:31.685Z,7.83
2019-04-01T04:28:03.185Z,10.13
2019-04-01T04:30:31.724Z,11.57
2019-04-01T04:33:01.564Z,7.23
2019-04-01T04:35:30.087Z,15.13
2019-04-01T04:37:59.410Z,8.57
2019-04-01T04:40:29.147Z,12.83
2019-04-01T04:42:58.753Z,8.87
2019-04-01T04:45:28.905Z,9.03
2019-04-01T04:47:58.963Z,6.53
2019-04-01T04:50:29.891Z,11.40
2019-04-01T04:52:59.305Z,14.13
2019-04-01T04:55:31.000Z,9.73
2019-04-01T04:57:59.546Z,9.07
2019-04-01T05:00:31.345Z,8.40
2019-04-01T05:03:03.776Z,9.07
2019-04-01T05:05:33.990Z,13.47
2019-04-01T05:08:02.520Z,13.27
2019-04-01T05:10:30.996Z,8.37
2019-04-01T05:13:02.561Z,9.80
2019-04-01T05:15:31.108Z,10.17
2019-04-01T05:18:01.220Z,14.80
2019-04-01T05:20:31.529Z,7.40
2019-04-01T05:23:05.349Z,10.67
2019-04-01T05:25:34.590Z,11.13
2019-04-01T05:28:03.802Z,7.83
2019-04-01T05:30:35.378Z,9.40
2019-04-01T05:33:05.328Z,5.83
2019-04-01T05:35:35.759Z,6.37
2019-04-01T05:38:05.499Z,10.33
2019-04-01T05:40:36.491Z,12.33
2019-04-01T05:43:05.208Z,9.70
2019-04-01T05:45:35.294Z,15.07
2019-04-01T05:48:03.821Z,8.63
2019-04-01T05:50:33.883Z,9.67
2019-04-01T05:53:02.716Z,10.33
2019-04-01T05:55:32.735Z,7.87
2019-04-01T05:58:01.278Z,10.40
2019-04-01T06:00:37.144Z,11.83
2019-04-01T06:03:05.753Z,6.60
2019-04-01T06:05:34.306Z,8.73
2019-04-01T06:08:03.288Z,16.17
2019-04-01T06:10:31.746Z,7.83
2019-04-01T06:13:02.883Z,9.73
2019-04-01T06:15:31.378Z,22.47
2019-04-01T06:18:01.189Z,13.47
2019-04-01T06:20:29.708Z,14.47
2019-04-01T06:23:00.321Z,8.47
2019-04-01T06:25:32.902Z,19.97
2019-04-01T06:28:03.741Z,9.43
2019-04-01T06:30:33.841Z,7.07
2019-04-01T06:33:02.352Z,9.07
2019-04-01T06:35:32.269Z,11.60
2019-04-01T06:38:00.835Z,12.30
2019-04-01T06:40:32.101Z,12.57
2019-04-01T06:43:00.874Z,13.67
2019-04-01T06:45:29.497Z,14.23
2019-04-01T06:47:57.953Z,11.33
2019-04-01T06:50:29.511Z,12.67
2019-04-01T06:53:00.477Z,7.67
2019-04-01T06:55:29.178Z,16.70
2019-04-01T06:57:57.703Z,8.03
2019-04-01T07:00:26.184Z,9.90
2019-04-01T07:02:54.862Z,12.73
2019-04-01T07:05:23.390Z,11.18
2019-04-01T07:07:51.915Z,12.13
2019-04-01T07:10:20.449Z,11.03
2019-04-01T07:12:48.909Z,12.80
2019-04-01T07:15:17.421Z,7.90
2019-04-01T07:17:45.969Z,8.07
2019-04-01T07:20:15.869Z,12.73
2019-04-01T07:22:44.672Z,12.80
2019-04-01T07:25:13.429Z,15.87
2019-04-01T07:27:43.455Z,12.90
2019-04-01T07:30:12.132Z,10.13
2019-04-01T07:32:41.582Z,13.97
2019-04-01T07:35:10.305Z,12.97
2019-04-01T07:37:40.500Z,12.03
2019-04-01T07:40:09.597Z,13.27
2019-04-01T07:42:41.079Z,9.70
2019-04-01T07:45:09.863Z,10.40
2019-04-01T07:47:38.450Z,12.35
2019-04-01T07:50:12.052Z,13.17
2019-04-01T07:52:39.031Z,12.13
2019-04-01T07:55:09.083Z,12.77
2019-04-01T07:57:37.556Z,7.77
2019-04-01T08:00:13.078Z,13.03
2019-04-01T08:02:48.864Z,11.38
2019-04-01T08:05:17.384Z,12.63
2019-04-01T08:07:45.999Z,10.77
2019-04-01T08:10:15.473Z,15.17
2019-04-01T08:12:47.022Z,12.60
2019-04-01T08:15:15.909Z,17.63
2019-04-01T08:17:44.426Z,15.53
2019-04-01T08:20:13.700Z,16.83
2019-04-01T08:22:43.470Z,11.77
2019-04-01T08:25:13.264Z,10.33
2019-04-01T08:27:41.955Z,11.17
2019-04-01T08:30:11.158Z,6.15
2019-04-01T08:32:39.719Z,16.17
2019-04-01T08:35:08.418Z,10.08
2019-04-01T08:37:39.944Z,13.73
2019-04-01T08:40:10.674Z,10.00
2019-04-01T08:42:40.354Z,9.37
2019-04-01T08:45:10.681Z,12.67
2019-04-01T08:47:39.210Z,14.43
2019-04-01T08:50:08.140Z,9.28
2019-04-01T08:52:36.593Z,12.73
2019-04-01T08:55:08.104Z,10.57
2019-04-01T08:57:37.019Z,9.93
2019-04-01T09:00:10.596Z,7.63
2019-04-01T09:02:39.183Z,9.77
2019-04-01T09:05:08.067Z,9.13
2019-04-01T09:07:39.569Z,10.90
2019-04-01T09:10:08.261Z,9.27
2019-04-01T09:12:38.674Z,11.83
2019-04-01T09:15:07.628Z,18.40
2019-04-01T09:17:39.773Z,13.23
2019-04-01T09:20:06.707Z,10.77
2019-04-01T09:22:36.801Z,8.43
2019-04-01T09:25:06.755Z,8.23
2019-04-01T09:27:36.868Z,9.93
2019-04-01T09:30:08.219Z,11.17
2019-04-01T09:32:36.752Z,10.98
2019-04-01T09:35:08.802Z,12.53
2019-04-01T09:37:37.258Z,9.83
2019-04-01T09:40:07.808Z,15.43
2019-04-01T09:42:36.432Z,11.40
2019-04-01T09:45:07.977Z,12.70
2019-04-01T09:47:36.431Z,9.97
2019-04-01T09:50:06.584Z,10.00
2019-04-01T09:52:35.197Z,11.48
2019-04-01T09:55:07.642Z,12.27
2019-04-01T09:57:38.869Z,13.43
2019-04-01T10:00:10.322Z,10.67
2019-04-01T10:02:38.879Z,17.20
2019-04-01T10:05:13.913Z,15.38
2019-04-01T10:07:42.776Z,11.50
2019-04-01T10:10:11.691Z,10.83
2019-04-01T10:12:44.672Z,11.33
2019-04-01T10:15:14.949Z,14.77
2019-04-01T10:17:45.110Z,11.60
2019-04-01T10:20:15.343Z,15.03
2019-04-01T10:22:44.121Z,10.17
2019-04-01T10:25:15.772Z,12.33
2019-04-01T10:27:44.276Z,13.07
2019-04-01T10:30:15.649Z,12.87
2019-04-01T10:32:44.505Z,13.27
2019-04-01T10:35:13.645Z,13.07
2019-04-01T10:37:42.269Z,12.60
2019-04-01T10:40:10.985Z,9.10
2019-04-01T10:42:39.657Z,13.00
2019-04-01T10:45:11.632Z,15.73
2019-04-01T10:47:40.242Z,11.37
2019-04-01T10:50:11.703Z,12.60
2019-04-01T10:52:44.501Z,15.47
2019-04-01T10:55:16.301Z,13.43
2019-04-01T10:57:45.154Z,11.20
2019-04-01T11:00:13.988Z,12.97
2019-04-01T11:02:42.510Z,11.13
2019-04-01T11:05:11.184Z,13.23
2019-04-01T11:07:39.935Z,16.37
2019-04-01T11:10:11.284Z,12.27
2019-04-01T11:12:39.798Z,10.65
2019-04-01T11:15:15.629Z,9.83
2019-04-01T11:17:46.278Z,15.03
2019-04-01T11:20:15.167Z,14.57
2019-04-01T11:22:44.667Z,12.67
2019-04-01T11:25:13.744Z,15.30
2019-04-01T11:27:44.985Z,14.40
2019-04-01T11:30:14.188Z,17.07
2019-04-01T11:32:42.814Z,10.97
2019-04-01T11:35:13.211Z,14.43
2019-04-01T11:37:42.086Z,12.67
2019-04-01T11:40:12.877Z,15.03
2019-04-01T11:42:41.676Z,17.40
2019-04-01T11:45:13.523Z,14.13
2019-04-01T11:47:42.128Z,14.43
2019-04-01T11:50:12.684Z,18.17
2019-04-01T11:52:41.208Z,11.33
2019-04-01T11:55:10.302Z,17.40
2019-04-01T11:57:40.431Z,13.57
2019-04-01T12:00:13.299Z,13.32
2019-04-01T12:02:46.540Z,18.03
2019-04-01T12:05:15.142Z,13.60
2019-04-01T12:07:43.609Z,11.97
2019-04-01T12:10:12.989Z,14.93
2019-04-01T12:12:43.308Z,16.43
2019-04-01T12:15:13.997Z,13.50
2019-04-01T12:17:42.521Z,14.37
2019-04-01T12:20:11.172Z,16.63
2019-04-01T12:22:40.786Z,13.87
2019-04-01T12:25:10.202Z,15.50
2019-04-01T12:27:43.205Z,17.07
2019-04-01T12:30:13.049Z,14.77
2019-04-01T12:32:41.807Z,17.87
2019-04-01T12:35:10.654Z,16.50
2019-04-01T12:37:39.110Z,15.43
2019-04-01T12:40:09.471Z,13.53
2019-04-01T12:42:38.081Z,16.10
2019-04-01T12:45:11.601Z,12.80
2019-04-01T12:47:43.126Z,14.87
2019-04-01T12:50:10.780Z,12.87
2019-04-01T12:52:40.750Z,15.40
2019-04-01T12:55:09.863Z,15.67
2019-04-01T12:57:41.265Z,16.87
2019-04-01T13:00:13.201Z,16.53
2019-04-01T13:02:41.903Z,18.60
2019-04-01T13:05:11.909Z,15.93
2019-04-01T13:07:40.542Z,15.37
2019-04-01T13:10:09.213Z,17.00
2019-04-01T13:12:38.752Z,15.83
2019-04-01T13:15:12.551Z,14.63
2019-04-01T13:17:41.530Z,15.53
2019-04-01T13:20:11.712Z,16.50
2019-04-01T13:22:40.239Z,14.47
2019-04-01T13:25:09.961Z,20.20
2019-04-01T13:27:38.433Z,16.63
2019-04-01T13:30:07.885Z,18.15
2019-04-01T13:32:36.491Z,15.10
2019-04-01T13:35:06.032Z,15.70
2019-04-01T13:37:34.605Z,20.00
2019-04-01T13:40:03.320Z,18.27
2019-04-01T13:42:31.927Z,15.63
2019-04-01T13:45:02.426Z,19.00
2019-04-01T13:47:33.947Z,15.83
2019-04-01T13:50:03.511Z,16.30
2019-04-01T13:52:32.836Z,19.47
2019-04-01T13:55:03.183Z,16.63
2019-04-01T13:57:31.695Z,18.40
2019-04-01T14:00:00.212Z,15.83
2019-04-01T14:02:33.172Z,17.00
2019-04-01T14:05:01.632Z,18.43
2019-04-01T14:07:31.536Z,17.67
2019-04-01T14:10:01.521Z,21.77
2019-04-01T14:12:30.253Z,15.03
2019-04-01T14:14:58.747Z,18.23
2019-04-01T14:17:27.259Z,18.90
2019-04-01T14:19:55.743Z,16.37
2019-04-01T14:22:26.236Z,17.32
2019-04-01T14:24:56.282Z,18.17
2019-04-01T14:27:26.815Z,20.63
2019-04-01T14:29:55.317Z,20.33
2019-04-01T14:32:26.255Z,17.32
2019-04-01T14:34:56.113Z,20.13
2019-04-01T14:37:29.948Z,18.30
2019-04-01T14:39:56.533Z,17.57
2019-04-01T14:42:25.003Z,17.70
2019-04-01T14:44:59.845Z,17.03
2019-04-01T14:47:28.375Z,15.20
2019-04-01T14:49:56.944Z,15.20
2019-04-01T14:52:32.712Z,22.53
2019-04-01T14:55:02.614Z,16.27
2019-04-01T14:57:33.134Z,17.07
2019-04-01T15:00:01.631Z,18.53
2019-04-01T15:02:30.328Z,17.50
2019-04-01T15:05:04.692Z,24.20
2019-04-01T15:07:31.830Z,18.40
2019-04-01T15:10:03.825Z,21.42
2019-04-01T15:12:36.767Z,14.27
2019-04-01T15:15:07.496Z,17.65
2019-04-01T15:17:36.954Z,18.80
2019-04-01T15:20:07.628Z,19.50
2019-04-01T15:22:36.198Z,16.40
2019-04-01T15:25:10.232Z,19.07
2019-04-01T15:27:38.803Z,18.10
2019-04-01T15:30:09.704Z,17.10
2019-04-01T15:32:38.315Z,17.17
2019-04-01T15:35:08.194Z,16.43
2019-04-01T15:37:36.684Z,22.30
2019-04-01T15:40:08.974Z,17.40
2019-04-01T15:42:40.738Z,18.50
2019-04-01T15:45:11.228Z,18.77
2019-04-01T15:47:41.680Z,19.57
2019-04-01T15:50:27.316Z,16.97
2019-04-01T15:52:43.751Z,17.57
2019-04-01T15:55:12.426Z,19.63
2019-04-01T15:57:40.904Z,19.60
2019-04-01T16:00:10.235Z,17.93
2019-04-01T16:02:38.829Z,18.70
2019-04-01T16:05:08.471Z,18.03
2019-04-01T16:07:41.436Z,20.43
2019-04-01T16:10:09.598Z,15.60
2019-04-01T16:12:39.552Z,18.63
2019-04-01T16:15:09.004Z,19.53
2019-04-01T16:17:40.040Z,17.80
2019-04-01T16:20:09.142Z,17.30
2019-04-01T16:22:37.608Z,24.83
2019-04-01T16:25:07.674Z,21.07
2019-04-01T16:27:38.358Z,19.27
2019-04-01T16:30:10.012Z,15.43
2019-04-01T16:32:38.698Z,17.80
2019-04-01T16:35:09.165Z,17.10
2019-04-01T16:37:37.630Z,16.10
2019-04-01T16:40:10.989Z,15.03
2019-04-01T16:42:39.522Z,16.90
2019-04-01T16:45:13.392Z,15.97
2019-04-01T16:47:42.010Z,23.83
2019-04-01T16:50:12.211Z,18.53
2019-04-01T16:52:46.401Z,18.97
2019-04-01T16:55:18.083Z,18.80
2019-04-01T16:57:45.851Z,16.43
2019-04-01T17:00:15.489Z,21.50
2019-04-01T17:02:43.994Z,17.33
2019-04-01T17:05:18.018Z,19.42
2019-04-01T17:07:46.711Z,18.67
2019-04-01T17:10:25.601Z,18.87
2019-04-01T17:12:54.356Z,16.67
2019-04-01T17:15:24.101Z,18.60
2019-04-01T17:17:52.571Z,24.80
2019-04-01T17:20:21.145Z,19.20
2019-04-01T17:22:49.903Z,22.60
2019-04-01T17:25:21.011Z,20.47
2019-04-01T17:27:51.269Z,26.30
2019-04-01T17:30:22.693Z,16.63
2019-04-01T17:32:52.491Z,17.23
2019-04-01T17:35:21.145Z,15.27
2019-04-01T17:37:49.669Z,22.22
2019-04-01T17:40:21.243Z,22.23
2019-04-01T17:42:52.467Z,17.30
2019-04-01T17:45:24.403Z,22.00
2019-04-01T17:47:53.824Z,19.87
2019-04-01T17:50:22.465Z,22.25
2019-04-01T17:52:51.029Z,24.63
2019-04-01T17:55:19.686Z,24.20
2019-04-01T17:57:48.190Z,23.27
2019-04-01T18:00:27.773Z,25.73
2019-04-01T18:02:56.475Z,22.77
2019-04-01T18:05:26.028Z,17.50
2019-04-01T18:07:57.714Z,21.03
2019-04-01T18:10:27.234Z,24.37
2019-04-01T18:12:59.496Z,22.85
2019-04-01T18:15:28.006Z,20.57
2019-04-01T18:17:59.535Z,23.50
2019-04-01T18:20:28.370Z,21.93
2019-04-01T18:22:57.147Z,25.93
2019-04-01T18:25:26.699Z,19.20
2019-04-01T18:27:55.185Z,24.63
2019-04-01T18:30:24.297Z,18.60
2019-04-01T18:32:55.708Z,18.50
2019-04-01T18:35:25.142Z,19.37
2019-04-01T18:37:58.474Z,24.03
2019-04-01T18:40:33.007Z,20.50
2019-04-01T18:43:04.312Z,22.23
2019-04-01T18:45:32.856Z,16.90
2019-04-01T18:48:01.333Z,23.22
2019-04-01T18:50:29.863Z,22.57
2019-04-01T18:53:02.022Z,21.43
2019-04-01T18:55:33.103Z,21.90
2019-04-01T18:58:01.606Z,21.73
2019-04-01T19:00:33.300Z,20.60
2019-04-01T19:03:01.821Z,19.50
2019-04-01T19:05:30.389Z,22.63
2019-04-01T19:08:00.456Z,17.00
2019-04-01T19:10:28.945Z,21.73
2019-04-01T19:13:05.606Z,27.37
2019-04-01T19:15:32.797Z,30.97
2019-04-01T19:18:01.751Z,28.70
2019-04-01T19:20:30.619Z,27.37
2019-04-01T19:22:59.198Z,23.95
2019-04-01T19:25:30.416Z,18.00
2019-04-01T19:27:58.905Z,20.50
2019-04-01T19:30:27.450Z,24.90
2019-04-01T19:32:57.356Z,22.93
2019-04-01T19:35:25.872Z,25.60
2019-04-01T19:37:56.098Z,21.37
2019-04-01T19:40:24.632Z,23.07
2019-04-01T19:42:54.092Z,17.47
2019-04-01T19:45:23.754Z,23.97
2019-04-01T19:47:52.320Z,21.27
2019-04-01T19:50:21.297Z,26.30
2019-04-01T19:52:52.520Z,23.43
2019-04-01T19:55:21.020Z,21.57
2019-04-01T19:57:49.586Z,23.97
2019-04-01T20:00:27.582Z,19.87
2019-04-01T20:02:49.471Z,21.60
2019-04-01T20:05:18.018Z,20.93
2019-04-01T20:07:46.565Z,20.30
2019-04-01T20:10:17.114Z,21.43
2019-04-01T20:12:47.287Z,27.27
2019-04-01T20:15:16.090Z,26.73
2019-04-01T20:17:47.582Z,29.25
2019-04-01T20:20:16.267Z,28.47
2019-04-01T20:22:44.918Z,32.03
2019-04-01T20:25:13.950Z,29.17
2019-04-01T20:27:44.356Z,34.87
2019-04-01T20:30:14.709Z,34.80
2019-04-01T20:32:43.498Z,31.53
2019-04-01T20:35:23.145Z,31.10
2019-04-01T20:37:44.147Z,29.70
2019-04-01T20:40:14.063Z,30.13
2019-04-01T20:42:42.691Z,24.13
2019-04-01T20:45:14.326Z,29.43
2019-04-01T20:47:43.340Z,25.60
2019-04-01T20:50:12.846Z,24.87
2019-04-01T20:52:41.349Z,27.23
2019-04-01T20:55:10.465Z,22.33
2019-04-01T20:57:39.077Z,23.30
2019-04-01T21:00:09.550Z,22.62
2019-04-01T21:02:38.587Z,23.13
2019-04-01T21:05:12.206Z,25.12
2019-04-01T21:07:44.896Z,21.53
2019-04-01T21:10:17.664Z,19.20
2019-04-01T21:12:46.135Z,23.27
2019-04-01T21:15:17.921Z,22.17
2019-04-01T21:17:46.485Z,28.73
2019-04-01T21:20:15.715Z,18.63
2019-04-01T21:22:44.179Z,21.23
2019-04-01T21:25:13.825Z,21.23
2019-04-01T21:27:42.381Z,20.87
2019-04-01T21:30:11.983Z,23.63
2019-04-01T21:32:40.473Z,23.10
2019-04-01T21:35:09.645Z,18.60
2019-04-01T21:37:39.980Z,22.77
2019-04-01T21:40:09.969Z,23.63
2019-04-01T21:42:38.435Z,16.77
2019-04-01T21:45:07.491Z,20.15
2019-04-01T21:47:36.047Z,19.60
2019-04-01T21:50:06.479Z,23.47
2019-04-01T21:52:40.334Z,22.50
2019-04-01T21:55:08.934Z,19.70
2019-04-01T21:57:38.757Z,19.07
2019-04-01T22:00:14.724Z,17.47
2019-04-01T22:02:44.088Z,20.50
2019-04-01T22:05:14.596Z,19.60
2019-04-01T22:07:43.056Z,19.23
2019-04-01T22:10:14.330Z,19.83
2019-04-01T22:12:42.940Z,16.57
2019-04-01T22:15:11.476Z,22.30
2019-04-01T22:17:39.960Z,17.57
2019-04-01T22:20:10.412Z,19.93
2019-04-01T22:22:40.336Z,21.40
2019-04-01T22:25:11.074Z,27.82
2019-04-01T22:27:42.091Z,23.83
2019-04-01T22:30:12.360Z,21.70
2019-04-01T22:32:44.804Z,17.50
2019-04-01T22:35:14.007Z,22.70
2019-04-01T22:37:42.500Z,19.13
2019-04-01T22:40:14.154Z,19.50
2019-04-01T22:42:44.337Z,19.90
2019-04-01T22:45:15.962Z,22.90
2019-04-01T22:47:45.427Z,20.00
2019-04-01T22:50:16.986Z,23.80
2019-04-01T22:52:48.012Z,19.60
2019-04-01T22:55:22.674Z,16.90
2019-04-01T22:57:53.319Z,18.93
2019-04-01T23:00:25.048Z,21.73
2019-04-01T23:02:55.643Z,20.37
2019-04-01T23:05:24.222Z,24.30
2019-04-01T23:07:57.575Z,17.23
2019-04-01T23:10:27.113Z,19.07
2019-04-01T23:12:57.567Z,16.37
2019-04-01T23:15:26.085Z,18.40
2019-04-01T23:17:56.069Z,21.65
2019-04-01T23:20:25.529Z,22.80
2019-04-01T23:22:57.726Z,19.32
2019-04-01T23:25:27.176Z,23.07
2019-04-01T23:27:55.999Z,21.23
2019-04-01T23:30:29.996Z,19.90
2019-04-01T23:33:00.100Z,20.70
2019-04-01T23:35:28.600Z,19.57
2019-04-01T23:38:01.069Z,20.37
2019-04-01T23:40:33.059Z,22.60
2019-04-01T23:43:02.782Z,17.20
2019-04-01T23:45:36.351Z,19.27
2019-04-01T23:48:05.040Z,19.63
2019-04-01T23:50:38.277Z,23.03
2019-04-01T23:53:10.085Z,21.25
2019-04-01T23:55:41.355Z,23.30
2019-04-01T23:58:11.457Z,20.80
